Time,TemperatureF,DewpointF,PressureIn,WindDirection,WindDirectionDegrees,WindSpeedMPH,WindSpeedGustMPH,Humidity,HourlyPrecipIn,Conditions,Clouds,dailyrainin,SoftwareType,DateUTC
2013-10-04 00:29:00,68.0,62.0,29.94,South,180,5.0,5.0,81,0.00,,,1.28,,2013-10-04 05:29:00,
2013-10-04 00:58:00,66.0,61.0,29.94,SSW,200,5.0,5.0,83,0.00,,,1.28,,2013-10-04 05:58:00,
2013-10-04 01:25:00,66.0,61.0,29.94,SSW,200,5.0,5.0,83,0.00,,,1.28,,2013-10-04 06:25:00,
2013-10-04 01:57:00,69.0,64.0,29.93,South,180,12.0,12.0,83,0.00,,,1.28,,2013-10-04 06:57:00,
2013-10-04 02:25:00,69.0,64.0,29.93,South,180,12.0,12.0,83,0.00,,,1.28,,2013-10-04 07:25:00,
2013-10-04 02:57:00,68.0,65.0,29.93,South,180,12.0,12.0,89,0.00,,,1.28,,2013-10-04 07:57:00,
2013-10-04 03:25:00,68.0,65.0,29.93,South,180,12.0,12.0,89,0.00,,,1.28,,2013-10-04 08:25:00,
2013-10-04 03:57:00,69.0,65.0,29.92,South,190,13.0,13.0,86,0.00,,,1.28,,2013-10-04 08:57:00,
2013-10-04 04:25:00,69.0,65.0,29.92,South,190,13.0,13.0,86,0.00,,,1.28,,2013-10-04 09:25:00,
2013-10-04 05:00:00,68.0,65.0,29.92,South,190,9.0,9.0,89,0.00,,,1.28,,2013-10-04 10:00:00,
2013-10-04 05:28:00,68.0,65.0,29.92,South,190,9.0,9.0,89,0.00,,,1.26,,2013-10-04 10:28:00,
2013-10-04 06:00:00,67.0,65.0,29.93,South,180,7.0,7.0,93,0.00,,,1.26,,2013-10-04 11:00:00,
2013-10-04 06:27:00,67.0,65.0,29.93,South,170,6.0,6.0,93,0.00,,,0.70,,2013-10-04 11:27:00,
2013-10-04 06:59:00,68.0,66.0,29.95,South,180,0.0,5.0,93,0.00,,,0.70,,2013-10-04 11:59:00,
2013-10-04 07:18:00,68.0,66.0,29.95,SSE,160,3.0,3.0,93,0.00,,,0.70,,2013-10-04 12:18:00,
2013-10-04 07:28:00,67.0,66.0,29.95,South,170,5.0,5.0,96,0.00,,,0.69,,2013-10-04 12:28:00,
2013-10-04 07:59:00,67.0,65.0,29.96,South,170,5.0,5.0,93,0.00,,,0.69,,2013-10-04 12:59:00,
2013-10-04 08:18:00,67.0,65.0,29.96,South,170,5.0,5.0,93,0.00,,,0.69,,2013-10-04 13:18:00,
2013-10-04 08:27:00,67.0,65.0,29.96,South,170,5.0,5.0,93,0.00,,,0.64,,2013-10-04 13:27:00,
2013-10-04 08:47:00,69.0,66.0,29.96,South,170,6.0,6.0,89,0.00,,,0.64,,2013-10-04 13:47:00,
2013-10-04 08:59:00,69.0,67.0,29.96,South,170,6.0,6.0,92,0.00,,,0.64,,2013-10-04 13:59:00,
2013-10-04 09:17:00,69.0,67.0,29.96,South,170,7.0,7.0,92,0.00,,,0.64,,2013-10-04 14:17:00,
2013-10-04 09:27:00,69.0,67.0,29.96,South,170,7.0,7.0,92,0.00,,,0.59,,2013-10-04 14:27:00,
2013-10-04 09:59:00,70.0,67.0,29.97,South,180,6.0,6.0,90,0.00,,,0.59,,2013-10-04 14:59:00,
2013-10-04 10:28:00,70.0,67.0,29.97,South,180,6.0,6.0,90,0.00,,,0.59,,2013-10-04 15:28:00,
2013-10-04 10:47:00,72.0,69.0,29.97,SSW,200,9.0,9.0,90,0.00,,,0.59,,2013-10-04 15:47:00,
2013-10-04 11:00:00,72.0,69.0,29.97,SSW,200,9.0,9.0,90,0.00,,,0.59,,2013-10-04 16:00:00,
2013-10-04 11:28:00,72.0,69.0,29.97,SSW,200,9.0,9.0,90,0.00,,,0.59,,2013-10-04 16:28:00,
2013-10-04 12:00:00,74.0,69.0,29.97,SSW,200,9.0,9.0,84,0.00,,,0.59,,2013-10-04 17:00:00,
2013-10-04 12:28:00,74.0,69.0,29.97,SSW,200,9.0,9.0,84,0.00,,,0.59,,2013-10-04 17:28:00,
2013-10-04 13:01:00,78.0,70.0,29.97,SSE,160,12.0,12.0,76,0.00,,,0.59,,2013-10-04 18:01:00,
2013-10-04 13:19:00,78.0,70.0,29.97,SSE,160,12.0,12.0,76,0.00,,,0.59,,2013-10-04 18:19:00,
2013-10-04 13:29:00,78.0,70.0,29.97,SSE,160,12.0,12.0,76,0.00,,,0.59,,2013-10-04 18:29:00,
2013-10-04 13:48:00,81.0,70.0,29.96,SSW,200,8.0,12.0,69,0.00,,,0.59,,2013-10-04 18:48:00,
2013-10-04 13:56:00,81.0,70.0,29.96,SSW,200,8.0,8.0,69,0.00,,,0.59,,2013-10-04 18:56:00,
2013-10-04 14:12:00,81.0,70.0,29.96,SSW,200,8.0,8.0,69,0.00,,,0.59,,2013-10-04 19:12:00,
2013-10-04 14:22:00,81.0,70.0,29.96,SSW,200,8.0,8.0,69,0.00,,,0.59,,2013-10-04 19:22:00,
2013-10-04 14:52:00,82.0,69.0,29.93,South,190,7.0,7.0,64,0.00,,,0.59,,2013-10-04 19:52:00,
2013-10-04 15:22:00,82.0,69.0,29.93,South,190,7.0,7.0,64,0.00,,,0.59,,2013-10-04 20:22:00,
2013-10-04 15:53:00,85.0,68.0,29.91,South,180,9.0,9.0,57,0.00,,,0.59,,2013-10-04 20:53:00,
2013-10-04 16:22:00,85.0,68.0,29.91,South,180,9.0,9.0,57,0.00,,,0.59,,2013-10-04 21:22:00,
2013-10-04 16:54:00,85.0,66.0,29.90,South,170,6.0,6.0,53,0.00,,,0.59,,2013-10-04 21:54:00,
2013-10-04 17:23:00,85.0,66.0,29.90,South,170,6.0,6.0,53,0.00,,,0.59,,2013-10-04 22:23:00,
2013-10-04 17:52:00,83.0,67.0,29.91,SSE,150,3.0,3.0,58,0.00,,,0.59,,2013-10-04 22:52:00,
2013-10-04 18:22:00,83.0,67.0,29.91,SSE,150,3.0,3.0,58,0.00,,,0.07,,2013-10-04 23:22:00,
2013-10-04 18:53:00,82.0,67.0,29.90,South,190,7.0,7.0,60,0.00,,,0.07,,2013-10-04 23:53:00,
2013-10-04 19:12:00,82.0,67.0,29.90,South,190,7.0,7.0,60,0.00,,,0.07,,2013-10-05 00:12:00,
2013-10-04 19:22:00,82.0,67.0,29.90,South,190,7.0,7.0,60,0.00,,,0.05,,2013-10-05 00:22:00,
2013-10-04 19:42:00,79.0,65.0,29.90,SSE,150,5.0,7.0,62,0.00,,,0.05,,2013-10-05 00:42:00,
2013-10-04 19:53:00,79.0,65.0,29.90,SSE,150,5.0,5.0,62,0.00,,,0.05,,2013-10-05 00:53:00,
2013-10-04 20:21:00,79.0,65.0,29.90,SSE,150,5.0,5.0,62,0.00,,,0.00,,2013-10-05 01:21:00,
2013-10-04 20:43:00,78.0,65.0,29.91,South,170,7.0,7.0,64,0.00,,,0.00,,2013-10-05 01:43:00,
2013-10-04 20:52:00,78.0,65.0,29.91,South,170,7.0,7.0,64,0.00,,,0.00,,2013-10-05 01:52:00,
2013-10-04 21:22:00,78.0,65.0,29.91,South,170,7.0,7.0,64,0.00,,,0.00,,2013-10-05 02:22:00,
2013-10-04 21:42:00,78.0,65.0,29.91,South,170,7.0,7.0,64,0.00,,,0.00,,2013-10-05 02:42:00,
2013-10-04 21:52:00,78.0,65.0,29.91,South,170,7.0,7.0,64,0.00,,,0.00,,2013-10-05 02:52:00,
2013-10-04 22:23:00,78.0,65.0,29.91,South,170,7.0,7.0,64,0.00,,,0.00,,2013-10-05 03:23:00,
2013-10-04 22:55:00,76.0,67.0,29.92,South,170,10.0,10.0,73,0.00,,,0.00,,2013-10-05 03:55:00,
2013-10-04 23:24:00,76.0,67.0,29.92,South,170,10.0,10.0,73,0.00,,,0.00,,2013-10-05 04:24:00,
2013-10-04 23:43:00,75.0,67.0,29.92,South,180,12.0,12.0,75,0.00,,,0.00,,2013-10-05 04:43:00,
2013-10-04 23:53:00,75.0,67.0,29.92,South,180,12.0,12.0,75,0.00,,,0.00,,2013-10-05 04:53:00,